This is the latest recevied weather packets stored in our database for station/object IU2QRC-3. If no packets are shown the sender has not sent any weather packets the latest 10 day(s).
| Time | Temp. | Humidity | Pressure | Rain* | Wind** | Luminosity | Snow |
|---|---|---|---|---|---|---|---|
| 1777710126 | 19.44° C | 34% | 1023.5 hPa | - | - | - | - |
| 1777708925 | 20° C | 30% | 1023.6 hPa | - | - | - | - |
| 1777707725 | 24.44° C | 31% | 1023.1 hPa | - | - | - | - |
| 1777706524 | 25.56° C | 29% | 1023.2 hPa | - | - | - | - |
| 1777704456 | 20° C | 37% | 1024.2 hPa | - | - | - | - |
| 1777702039 | 19.44° C | 41% | 1024.1 hPa | - | - | - | - |
| 1777699631 | 18.89° C | 42% | 1024.3 hPa | - | - | - | - |
| 1777698428 | 18.89° C | 42% | 1024.3 hPa | - | - | - | - |
| 1777697224 | 18.89° C | 42% | 1024.2 hPa | - | - | - | - |
| 1777696021 | 18.89° C | 41% | 1024.3 hPa | - | - | - | - |
| 1777694817 | 18.89° C | 42% | 1024.2 hPa | - | - | - | - |
| 1777693615 | 19.44° C | 41% | 1024.2 hPa | - | - | - | - |
| 1777692410 | 19.44° C | 41% | 1024.1 hPa | - | - | - | - |
| 1777691207 | 19.44° C | 42% | 1024.1 hPa | - | - | - | - |
| 1777690003 | 19.44° C | 42% | 1024.2 hPa | - | - | - | - |
| 1777688800 | 19.44° C | 41% | 1024.2 hPa | - | - | - | - |
| 1777687597 | 19.44° C | 41% | 1024.2 hPa | - | - | - | - |
| 1777686393 | 19.44° C | 41% | 1024 hPa | - | - | - | - |
| 1777685190 | 19.44° C | 41% | 1024.1 hPa | - | - | - | - |
| 1777683986 | 19.44° C | 40% | 1024.2 hPa | - | - | - | - |
| 1777682782 | 19.44° C | 40% | 1024.1 hPa | - | - | - | - |
| 1777681579 | 20° C | 40% | 1024.1 hPa | - | - | - | - |
| 1777680375 | 20° C | 40% | 1024.1 hPa | - | - | - | - |
| 1777679172 | 20° C | 39% | 1024.2 hPa | - | - | - | - |
| 1777677968 | 20° C | 39% | 1024.1 hPa | - | - | - | - |
* Rain since midnight (hover to see other rain measurements)
** Current wind speed in m/s (hover to see current wind gust speed)